Time;durP1;ratioP1;P1;durP2;ratioP2;P2;SDS_P1;SDS_P2;PMS_P1;PMS_P2;Temp;Humidity;BMP_temperature;BMP_pressure;BME280_temperature;BME280_humidity;BME280_pressure;Samples;Min_cycle;Max_cycle;Signal;HPM_P1;HPM_P2
2021/11/19 00:02:10;;;;;;;7.10;4.55;;;10.40;99.90;;;;;;5059746;28;20020;-73
2021/11/19 00:04:36;;;;;;;6.53;4.50;;;10.40;99.90;;;;;;5072356;28;20107;-71
2021/11/19 00:07:04;;;;;;;10.05;5.35;;;10.40;99.90;;;;;;5067939;28;20533;-74
2021/11/19 00:09:30;;;;;;;9.27;5.50;;;10.30;99.90;;;;;;5053036;28;20393;-71
2021/11/19 00:11:57;;;;;;;7.30;5.43;;;10.30;99.90;;;;;;5055935;28;20031;-71
2021/11/19 00:14:24;;;;;;;7.72;5.32;;;10.30;99.90;;;;;;5072860;28;20028;-72
2021/11/19 00:16:57;;;;;;;9.68;5.28;;;10.20;99.90;;;;;;5070893;28;20472;-72
2021/11/19 00:19:24;;;;;;;8.50;5.65;;;10.20;99.90;;;;;;5072701;28;20037;-71
2021/11/19 00:21:50;;;;;;;9.10;6.07;;;10.20;99.90;;;;;;5068900;28;20541;-70
2021/11/19 00:24:17;;;;;;;8.35;5.30;;;10.20;99.90;;;;;;5072695;28;20060;-72
2021/11/19 00:26:43;;;;;;;10.40;5.78;;;10.20;99.90;;;;;;5053666;28;20448;-72
2021/11/19 00:29:10;;;;;;;8.60;5.65;;;10.10;99.90;;;;;;5071666;28;20024;-71
2021/11/19 00:31:37;;;;;;;7.40;5.40;;;10.10;99.90;;;;;;5068725;28;20073;-70
2021/11/19 00:34:03;;;;;;;10.55;6.10;;;10.20;99.90;;;;;;5072625;28;20020;-71
2021/11/19 00:36:32;;;;;;;7.38;4.70;;;10.20;99.90;;;;;;5071139;28;20088;-72
2021/11/19 00:39:01;;;;;;;9.07;4.70;;;10.30;99.90;;;;;;5035055;28;20496;-72
2021/11/19 00:41:28;;;;;;;7.90;4.80;;;10.30;99.90;;;;;;5052111;28;20520;-71
2021/11/19 00:43:54;;;;;;;8.68;5.93;;;10.30;99.90;;;;;;5052216;28;20025;-72
2021/11/19 00:46:21;;;;;;;7.95;5.30;;;10.30;99.90;;;;;;5052139;28;20039;-72
2021/11/19 00:48:46;;;;;;;8.45;5.35;;;10.30;99.90;;;;;;5058402;28;20376;-72
2021/11/19 00:51:17;;;;;;;6.78;4.25;;;10.30;99.90;;;;;;5070053;28;20013;-71
2021/11/19 00:53:47;;;;;;;8.93;5.53;;;10.30;99.90;;;;;;5072280;28;20459;-71
2021/11/19 00:56:15;;;;;;;12.25;5.97;;;10.20;99.90;;;;;;5070217;28;20107;-71
2021/11/19 00:58:42;;;;;;;8.32;4.82;;;10.20;99.90;;;;;;5069887;28;20040;-71
2021/11/19 01:01:12;;;;;;;6.70;4.43;;;10.20;99.90;;;;;;5051073;28;20025;-72
2021/11/19 01:03:38;;;;;;;7.65;4.72;;;10.10;99.90;;;;;;5051694;28;20025;-72
2021/11/19 01:06:04;;;;;;;13.68;5.10;;;10.10;99.90;;;;;;5052083;28;20041;-70
2021/11/19 01:08:30;;;;;;;10.30;5.22;;;10.10;99.90;;;;;;5051672;28;20036;-72
2021/11/19 01:10:59;;;;;;;9.50;4.88;;;10.10;99.90;;;;;;5055728;28;20024;-71
2021/11/19 01:13:26;;;;;;;11.02;5.13;;;10.10;99.90;;;;;;5056105;28;20025;-72
2021/11/19 01:15:56;;;;;;;8.95;4.85;;;10.00;99.90;;;;;;5056029;28;20453;-70
2021/11/19 01:18:37;;;;;;;8.82;5.03;;;10.10;99.90;;;;;;5055927;28;20081;-71
2021/11/19 01:21:14;;;;;;;10.23;5.45;;;10.10;99.90;;;;;;5056908;28;20065;-72
2021/11/19 01:23:41;;;;;;;11.88;5.85;;;10.10;99.90;;;;;;5055772;28;20079;-72
2021/11/19 01:26:29;;;;;;;10.10;5.20;;;10.00;99.90;;;;;;5058037;28;20028;-72
2021/11/19 01:28:57;;;;;;;10.77;5.50;;;10.10;99.90;;;;;;5075329;28;20059;-71
2021/11/19 01:31:34;;;;;;;8.77;4.95;;;10.00;99.90;;;;;;5073205;28;20031;-72
2021/11/19 01:33:59;;;;;;;7.10;4.70;;;10.00;99.90;;;;;;5057747;28;20051;-71
2021/11/19 01:36:26;;;;;;;11.02;5.20;;;10.00;99.90;;;;;;5064661;28;20486;-72
2021/11/19 01:38:52;;;;;;;7.82;5.15;;;10.00;99.90;;;;;;5055456;28;20029;-72
2021/11/19 01:41:24;;;;;;;8.55;4.75;;;10.00;99.90;;;;;;5062639;28;20028;-70
2021/11/19 01:43:50;;;;;;;;;;;10.00;99.90;;;;;;5075837;28;20043;-72
2021/11/19 01:46:22;;;;;;;11.93;4.97;;;10.10;99.90;;;;;;5074567;28;20007;-71
2021/11/19 01:48:50;;;;;;;7.63;4.93;;;10.00;99.90;;;;;;5075044;28;20027;-71
2021/11/19 01:51:24;;;;;;;10.85;5.68;;;10.00;99.90;;;;;;5070603;28;20128;-71
2021/11/19 01:54:05;;;;;;;8.88;4.75;;;10.00;99.90;;;;;;5055240;28;20017;-71
2021/11/19 01:56:35;;;;;;;7.53;4.35;;;10.00;99.90;;;;;;5066663;28;20035;-71
2021/11/19 01:59:20;;;;;;;7.93;4.55;;;10.00;99.90;;;;;;5075192;28;20032;-71
2021/11/19 02:01:57;;;;;;;10.80;5.60;;;9.90;99.90;;;;;;5061560;28;20041;-71
2021/11/19 02:04:31;;;;;;;7.30;4.60;;;10.00;99.90;;;;;;5054930;28;20036;-71
2021/11/19 02:07:09;;;;;;;7.32;4.78;;;10.00;99.90;;;;;;5066735;28;20687;-71
2021/11/19 02:09:50;;;;;;;7.88;4.70;;;9.90;99.90;;;;;;5074690;28;20104;-71
2021/11/19 02:12:29;;;;;;;8.20;5.57;;;10.00;99.90;;;;;;5062399;28;20028;-71
2021/11/19 02:15:05;;;;;;;9.38;5.50;;;9.90;99.90;;;;;;5055184;28;20478;-71
2021/11/19 02:17:31;;;;;;;7.90;4.53;;;10.00;99.90;;;;;;5067982;28;20013;-71
2021/11/19 02:20:02;;;;;;;7.55;5.13;;;9.90;99.90;;;;;;5067820;28;20032;-72
2021/11/19 02:22:53;;;;;;;8.98;5.32;;;10.00;99.90;;;;;;5066176;28;20491;-72
2021/11/19 02:25:31;;;;;;;7.15;4.57;;;9.90;99.90;;;;;;5061830;28;20499;-71
2021/11/19 02:28:01;;;;;;;10.20;5.65;;;10.00;99.90;;;;;;5054683;28;20025;-72
2021/11/19 02:30:33;;;;;;;6.72;4.85;;;10.00;99.90;;;;;;5055655;28;20036;-70
2021/11/19 02:33:06;;;;;;;8.00;4.88;;;10.00;99.90;;;;;;5055213;28;20035;-71
2021/11/19 02:35:41;;;;;;;9.93;5.70;;;9.90;99.90;;;;;;5054118;28;20091;-71
2021/11/19 02:38:10;;;;;;;9.20;4.72;;;9.90;99.90;;;;;;5073458;28;20033;-70
2021/11/19 02:40:39;;;;;;;8.10;5.28;;;10.00;99.90;;;;;;5074464;28;20123;-72
2021/11/19 02:43:09;;;;;;;9.25;5.38;;;10.00;99.90;;;;;;5054219;28;20033;-71
2021/11/19 02:45:46;;;;;;;12.80;4.78;;;10.00;99.90;;;;;;5054431;28;20417;-73
2021/11/19 02:48:19;;;;;;;8.32;5.15;;;9.90;99.90;;;;;;5066201;28;20048;-71
2021/11/19 02:50:46;;;;;;;10.25;5.07;;;10.00;99.90;;;;;;5074363;28;20457;-71
2021/11/19 02:53:13;;;;;;;12.50;5.82;;;9.90;99.90;;;;;;5062294;28;20115;-71
2021/11/19 02:55:42;;;;;;;10.50;5.63;;;9.90;99.90;;;;;;5056182;28;20071;-71
2021/11/19 02:58:12;;;;;;;8.68;5.20;;;9.90;99.90;;;;;;5074065;28;20035;-72
2021/11/19 03:00:46;;;;;;;10.07;5.57;;;9.90;99.90;;;;;;5047318;28;20132;-71
2021/11/19 03:03:12;;;;;;;8.63;5.38;;;9.90;99.90;;;;;;5072687;28;20030;-71
2021/11/19 03:05:38;;;;;;;10.65;5.57;;;9.80;99.90;;;;;;5073878;28;20422;-72
2021/11/19 03:08:04;;;;;;;16.75;6.43;;;9.80;99.90;;;;;;5071903;28;20025;-73
2021/11/19 03:10:35;;;;;;;12.68;5.97;;;9.70;99.90;;;;;;5073822;28;20404;-72
2021/11/19 03:13:05;;;;;;;11.40;5.90;;;9.70;99.90;;;;;;5057685;28;20028;-71
2021/11/19 03:15:34;;;;;;;10.23;6.03;;;9.80;99.90;;;;;;5035510;28;20025;-72
2021/11/19 03:18:00;;;;;;;10.25;5.97;;;9.80;99.90;;;;;;5067898;28;20024;-72
2021/11/19 03:20:27;;;;;;;11.27;5.45;;;9.80;99.90;;;;;;5072835;28;20068;-72
2021/11/19 03:22:54;;;;;;;8.65;5.43;;;9.80;99.90;;;;;;5071626;28;20033;-70
2021/11/19 03:25:30;;;;;;;9.55;5.18;;;9.80;99.90;;;;;;5073639;28;20028;-72
2021/11/19 03:27:56;;;;;;;7.95;5.30;;;9.80;99.90;;;;;;5056036;28;20028;-71
2021/11/19 03:30:24;;;;;;;9.38;5.57;;;9.80;99.90;;;;;;5053385;28;20025;-71
2021/11/19 03:32:51;;;;;;;9.40;5.25;;;9.80;99.90;;;;;;5053027;28;20025;-71
2021/11/19 03:35:18;;;;;;;7.25;5.30;;;9.70;99.90;;;;;;5052936;28;20049;-71
2021/11/19 03:37:46;;;;;;;8.95;6.00;;;9.80;99.90;;;;;;5054114;28;20035;-72
2021/11/19 03:40:15;;;;;;;8.80;5.53;;;9.70;99.90;;;;;;5053335;28;20040;-72
2021/11/19 03:42:41;;;;;;;7.38;5.68;;;9.70;99.90;;;;;;5052542;28;20453;-72
2021/11/19 03:45:11;;;;;;;10.10;5.50;;;9.70;99.90;;;;;;5053353;28;20048;-71
2021/11/19 03:47:41;;;;;;;7.07;4.78;;;9.70;99.90;;;;;;5053888;28;20028;-71
2021/11/19 03:50:19;;;;;;;9.07;5.65;;;9.70;99.90;;;;;;5052914;28;20056;-72
2021/11/19 03:52:45;;;;;;;11.30;6.45;;;9.60;99.90;;;;;;5072639;28;20023;-72
2021/11/19 03:55:16;;;;;;;11.75;5.22;;;9.60;99.90;;;;;;5053320;28;20568;-72
2021/11/19 03:57:52;;;;;;;11.02;8.13;;;9.60;99.90;;;;;;5054591;28;20024;-72
2021/11/19 04:00:26;;;;;;;11.43;6.20;;;9.60;99.90;;;;;;5065183;28;20134;-72
2021/11/19 04:02:53;;;;;;;7.47;5.40;;;9.70;99.90;;;;;;5054738;28;20020;-72
2021/11/19 04:05:20;;;;;;;11.80;5.15;;;9.60;99.90;;;;;;5053090;28;20025;-72
2021/11/19 04:07:46;;;;;;;9.43;4.60;;;9.60;99.90;;;;;;5036041;28;20029;-72
2021/11/19 04:10:13;;;;;;;6.72;4.47;;;9.60;99.90;;;;;;5052406;28;20133;-72
2021/11/19 04:12:39;;;;;;;9.75;4.85;;;9.60;99.90;;;;;;5060957;28;20024;-71
2021/11/19 04:15:09;;;;;;;9.25;4.90;;;9.60;99.90;;;;;;5073157;28;20032;-70
2021/11/19 04:17:36;;;;;;;8.98;4.68;;;9.60;99.90;;;;;;5063064;28;20056;-71
2021/11/19 04:20:03;;;;;;;10.77;4.47;;;9.60;99.90;;;;;;5052506;28;20075;-73
2021/11/19 04:22:28;;;;;;;9.00;5.38;;;9.60;99.90;;;;;;5053301;28;20397;-72
2021/11/19 04:25:00;;;;;;;8.38;5.57;;;9.60;99.90;;;;;;5053138;28;20036;-71
2021/11/19 04:27:27;;;;;;;8.37;5.63;;;9.60;99.90;;;;;;5052689;28;20025;-71
2021/11/19 04:29:53;;;;;;;8.45;5.20;;;9.60;99.90;;;;;;5052719;28;20025;-70
2021/11/19 04:32:22;;;;;;;11.95;7.60;;;9.60;99.90;;;;;;5072329;28;20029;-72
2021/11/19 04:34:49;;;;;;;8.00;5.75;;;9.60;99.90;;;;;;5071621;28;20017;-72
2021/11/19 04:37:15;;;;;;;7.03;4.88;;;9.60;99.90;;;;;;5068536;28;20350;-71
2021/11/19 04:39:41;;;;;;;6.75;4.40;;;9.60;99.90;;;;;;5071101;28;20037;-71
2021/11/19 04:42:07;;;;;;;7.40;3.67;;;9.60;99.90;;;;;;5069282;28;20017;-71
2021/11/19 04:44:34;;;;;;;6.90;4.10;;;9.60;99.90;;;;;;5070743;28;20365;-71
2021/11/19 04:47:01;;;;;;;7.22;3.97;;;9.60;99.90;;;;;;5039336;28;20028;-73
2021/11/19 04:49:27;;;;;;;19.75;4.45;;;9.60;99.90;;;;;;5052965;28;20037;-71
2021/11/19 04:51:53;;;;;;;7.53;4.53;;;9.50;99.90;;;;;;5053132;28;20389;-73
2021/11/19 04:54:22;;;;;;;7.75;4.72;;;9.50;99.90;;;;;;5034674;28;20096;-72
2021/11/19 04:56:49;;;;;;;5.15;3.67;;;9.50;99.90;;;;;;5053377;28;20426;-72
2021/11/19 04:59:16;;;;;;;7.75;4.25;;;9.50;99.90;;;;;;5052839;28;20083;-71
2021/11/19 05:01:47;;;;;;;6.03;3.92;;;9.50;99.90;;;;;;5072020;28;20024;-70
2021/11/19 05:04:13;;;;;;;6.88;4.32;;;9.40;99.90;;;;;;5071057;28;20095;-70
2021/11/19 05:06:39;;;;;;;7.07;4.30;;;9.50;99.90;;;;;;5056600;28;20045;-71
2021/11/19 05:09:06;;;;;;;8.07;3.90;;;9.50;99.90;;;;;;5052477;28;20021;-72
2021/11/19 05:11:37;;;;;;;9.20;4.15;;;9.50;99.90;;;;;;5055044;28;20028;-70
2021/11/19 05:14:04;;;;;;;6.50;3.88;;;9.50;99.90;;;;;;5070176;28;20036;-72
2021/11/19 05:16:30;;;;;;;6.68;4.28;;;9.50;99.90;;;;;;5072121;28;20485;-71
2021/11/19 05:18:56;;;;;;;5.90;4.28;;;9.50;99.90;;;;;;5071620;28;20041;-72
2021/11/19 05:21:22;;;;;;;7.43;4.20;;;9.50;99.90;;;;;;5071971;28;20066;-72
2021/11/19 05:23:49;;;;;;;7.20;4.22;;;9.50;99.90;;;;;;5071391;28;20023;-72
2021/11/19 05:26:15;;;;;;;5.13;3.78;;;9.60;99.90;;;;;;5072067;28;20031;-70
2021/11/19 05:28:41;;;;;;;5.53;3.58;;;9.50;99.90;;;;;;5069797;28;20040;-72
2021/11/19 05:31:08;;;;;;;6.90;4.60;;;9.50;99.90;;;;;;5071709;28;20384;-71
2021/11/19 05:33:36;;;;;;;6.00;4.03;;;9.60;99.90;;;;;;5071308;28;20432;-72
2021/11/19 05:36:03;;;;;;;6.07;3.83;;;9.60;99.90;;;;;;5071869;28;20056;-71
2021/11/19 05:38:30;;;;;;;7.05;4.60;;;9.60;99.90;;;;;;5071340;28;20021;-71
2021/11/19 05:40:57;;;;;;;7.97;4.15;;;9.60;99.90;;;;;;5070926;28;20032;-70
2021/11/19 05:43:24;;;;;;;9.30;4.45;;;9.60;99.90;;;;;;5052526;28;20085;-72
2021/11/19 05:45:49;;;;;;;6.72;3.88;;;9.60;99.90;;;;;;5051468;28;20028;-73
2021/11/19 05:48:15;;;;;;;8.05;4.00;;;9.60;99.90;;;;;;5052587;28;20036;-72
2021/11/19 05:50:43;;;;;;;7.38;4.35;;;9.50;99.90;;;;;;5055807;28;20056;-72
2021/11/19 05:53:10;;;;;;;6.78;3.80;;;9.50;99.90;;;;;;5070352;28;20063;-72
2021/11/19 05:55:38;;;;;;;7.25;4.00;;;9.50;99.90;;;;;;5070645;28;20032;-72
2021/11/19 05:58:04;;;;;;;8.15;4.38;;;9.50;99.90;;;;;;5075422;28;20070;-74
2021/11/19 06:00:38;;;;;;;8.13;4.30;;;9.50;99.90;;;;;;5061428;28;20037;-73
2021/11/19 06:03:04;;;;;;;8.43;3.90;;;9.50;99.90;;;;;;5061552;28;20021;-72
2021/11/19 06:05:30;;;;;;;6.50;4.25;;;9.60;99.90;;;;;;5062067;28;20036;-73
2021/11/19 06:07:56;;;;;;;16.80;4.07;;;9.60;99.90;;;;;;5054550;28;20021;-72
2021/11/19 06:10:27;;;;;;;5.40;3.85;;;9.60;99.90;;;;;;5054947;28;20029;-72
2021/11/19 06:13:15;;;;;;;10.90;4.50;;;9.60;99.90;;;;;;5071613;28;20043;-73
2021/11/19 06:15:57;;;;;;;7.63;4.65;;;9.70;99.90;;;;;;5056355;28;20024;-72
2021/11/19 06:18:28;;;;;;;6.95;4.30;;;9.70;99.90;;;;;;5055408;28;20033;-72
2021/11/19 06:20:57;;;;;;;8.48;4.40;;;9.70;99.90;;;;;;5054515;28;20028;-73
2021/11/19 06:23:26;;;;;;;6.47;4.57;;;9.70;99.90;;;;;;5054162;28;20087;-73
2021/11/19 06:25:53;;;;;;;7.40;4.38;;;9.70;99.90;;;;;;5054665;28;20025;-72
2021/11/19 06:28:30;;;;;;;7.97;4.40;;;9.80;99.90;;;;;;5054762;28;20155;-72
2021/11/19 06:30:57;;;;;;;8.23;5.00;;;9.80;99.90;;;;;;5056405;28;20031;-73
2021/11/19 06:33:23;;;;;;;13.57;5.38;;;9.90;99.90;;;;;;5054274;28;20028;-72
2021/11/19 06:35:49;;;;;;;8.75;5.00;;;10.00;99.90;;;;;;5053843;28;20045;-71
2021/11/19 06:38:17;;;;;;;8.98;5.25;;;10.10;99.90;;;;;;5054566;28;20050;-72
2021/11/19 06:40:43;;;;;;;10.00;4.53;;;10.30;99.90;;;;;;5068638;28;20036;-71
2021/11/19 06:43:09;;;;;;;7.60;4.90;;;10.50;99.90;;;;;;5055283;28;20051;-72
2021/11/19 06:45:35;;;;;;;7.10;5.05;;;10.90;99.90;;;;;;5054222;28;20082;-72
2021/11/19 06:48:05;;;;;;;8.63;4.82;;;11.20;99.90;;;;;;5055049;28;20013;-72
2021/11/19 06:50:34;;;;;;;8.40;5.30;;;11.50;99.90;;;;;;5053985;28;20031;-71
2021/11/19 06:53:01;;;;;;;9.00;5.03;;;11.80;99.90;;;;;;5053666;28;20052;-73
2021/11/19 06:55:27;;;;;;;8.13;4.80;;;12.10;99.90;;;;;;5054554;28;20017;-72
2021/11/19 06:57:53;;;;;;;8.38;4.75;;;12.40;99.90;;;;;;5053610;28;20122;-72
2021/11/19 07:00:24;;;;;;;6.70;4.43;;;12.80;99.90;;;;;;5054991;28;20045;-72
2021/11/19 07:02:49;;;;;;;9.75;5.20;;;13.10;99.90;;;;;;5055167;28;20032;-72
2021/11/19 07:05:16;;;;;;;9.30;4.03;;;13.50;99.90;;;;;;5053756;28;20025;-73
2021/11/19 07:07:43;;;;;;;12.13;4.45;;;13.80;99.90;;;;;;5053824;28;20037;-72
2021/11/19 07:10:10;;;;;;;7.82;4.85;;;13.90;99.90;;;;;;5053995;28;20029;-71
2021/11/19 07:12:36;;;;;;;7.00;4.43;;;14.10;99.90;;;;;;5055575;28;20029;-72
2021/11/19 07:15:07;;;;;;;9.80;4.88;;;14.20;99.90;;;;;;5053808;28;20049;-72
2021/11/19 07:17:33;;;;;;;18.52;5.30;;;14.50;99.90;;;;;;5053708;28;20366;-72
2021/11/19 07:19:59;;;;;;;7.43;4.88;;;14.80;99.90;;;;;;5058431;28;20481;-72
2021/11/19 07:22:26;;;;;;;10.82;4.50;;;14.90;99.90;;;;;;5071378;28;20052;-72
2021/11/19 07:24:52;;;;;;;12.57;5.35;;;15.20;99.90;;;;;;5073551;28;20031;-73
2021/11/19 07:27:20;;;;;;;30.63;5.35;;;15.60;99.90;;;;;;5069990;28;20427;-73
2021/11/19 07:29:46;;;;;;;11.82;5.22;;;15.90;99.90;;;;;;5068344;28;20021;-72
2021/11/19 07:32:12;;;;;;;14.68;4.95;;;16.00;99.90;;;;;;5054423;28;20029;-72
2021/11/19 07:34:38;;;;;;;10.55;4.53;;;16.30;99.90;;;;;;5053092;28;20432;-72
2021/11/19 07:37:05;;;;;;;18.67;5.32;;;16.50;99.90;;;;;;5054720;28;20044;-73
2021/11/19 07:39:31;;;;;;;16.38;5.53;;;17.00;99.90;;;;;;5072995;28;20473;-72
2021/11/19 07:41:57;;;;;;;18.58;4.65;;;17.40;99.90;;;;;;5050836;28;20036;-73
2021/11/19 07:44:24;;;;;;;15.80;4.93;;;17.80;99.90;;;;;;5071740;28;20063;-71
2021/11/19 07:46:50;;;;;;;14.95;5.03;;;18.20;99.50;;;;;;5070418;28;20016;-73
2021/11/19 07:49:16;;;;;;;13.57;5.90;;;18.60;99.30;;;;;;5072296;28;20024;-73
2021/11/19 07:51:46;;;;;;;17.85;4.60;;;19.10;98.70;;;;;;5065708;28;20020;-72
2021/11/19 07:54:12;;;;;;;10.00;4.85;;;19.60;97.60;;;;;;5072629;28;20040;-72
2021/11/19 07:56:39;;;;;;;17.10;4.82;;;19.90;97.00;;;;;;5070400;28;20109;-72
2021/11/19 07:59:20;;;;;;;12.43;4.75;;;19.90;96.70;;;;;;5071483;28;20024;-73
2021/11/19 08:01:46;;;;;;;16.27;5.22;;;20.10;96.50;;;;;;5059028;28;20036;-71
2021/11/19 08:04:13;;;;;;;17.38;5.00;;;20.30;96.00;;;;;;5054493;28;20566;-71
2021/11/19 08:06:39;;;;;;;10.55;3.85;;;20.50;96.00;;;;;;5071305;28;20075;-73
2021/11/19 08:09:06;;;;;;;12.18;4.50;;;20.90;95.40;;;;;;5070331;28;20023;-72
2021/11/19 08:11:32;;;;;;;8.20;3.85;;;21.30;95.00;;;;;;5053059;28;20021;-74
2021/11/19 08:13:58;;;;;;;12.38;3.95;;;21.40;94.00;;;;;;5072098;28;20039;-73
2021/11/19 08:16:25;;;;;;;13.63;4.32;;;21.20;94.30;;;;;;5071720;28;20034;-72
2021/11/19 08:18:57;;;;;;;12.57;5.25;;;21.00;94.40;;;;;;5071465;28;20017;-72
2021/11/19 08:21:23;;;;;;;13.68;6.15;;;20.70;94.60;;;;;;5054290;28;20129;-72
2021/11/19 08:23:53;;;;;;;15.05;5.43;;;20.60;93.90;;;;;;5072596;28;20384;-72
2021/11/19 08:26:25;;;;;;;14.25;4.97;;;20.40;94.60;;;;;;5072302;28;20090;-71
2021/11/19 08:28:51;;;;;;;7.63;4.72;;;20.30;94.80;;;;;;5071127;28;20025;-73
2021/11/19 08:31:19;;;;;;;12.02;4.50;;;20.20;94.50;;;;;;5058040;28;20404;-72
2021/11/19 08:33:46;;;;;;;16.17;5.13;;;20.00;94.90;;;;;;5056643;28;20027;-72
2021/11/19 08:36:12;;;;;;;7.18;4.53;;;20.10;94.70;;;;;;5072893;28;20045;-73
2021/11/19 08:38:41;;;;;;;13.45;5.30;;;20.10;94.50;;;;;;5071366;28;20470;-73
2021/11/19 08:41:08;;;;;;;8.00;4.75;;;20.20;94.50;;;;;;5071183;28;20040;-72
2021/11/19 08:43:39;;;;;;;7.95;4.85;;;20.30;94.20;;;;;;5071870;28;20024;-73
2021/11/19 08:46:08;;;;;;;8.67;4.70;;;20.10;94.30;;;;;;5071871;28;20127;-71
2021/11/19 08:48:35;;;;;;;8.50;4.38;;;20.10;93.90;;;;;;5071377;28;20078;-73
2021/11/19 08:51:05;;;;;;;8.02;4.38;;;20.10;94.30;;;;;;5071421;28;20016;-72
2021/11/19 08:53:31;;;;;;;14.73;4.90;;;20.20;93.90;;;;;;5071457;28;20021;-72
2021/11/19 08:55:59;;;;;;;14.70;5.28;;;20.20;93.70;;;;;;5070281;28;20046;-72
2021/11/19 08:58:29;;;;;;;19.65;4.78;;;20.30;93.50;;;;;;5070485;28;20029;-72
2021/11/19 09:00:57;;;;;;;14.73;4.20;;;20.10;93.60;;;;;;5071312;28;20029;-74
2021/11/19 09:03:23;;;;;;;14.25;4.88;;;20.20;93.80;;;;;;5071093;28;20019;-73
2021/11/19 09:05:50;;;;;;;9.27;4.82;;;20.40;94.10;;;;;;5071035;28;20046;-72
2021/11/19 09:08:18;;;;;;;21.88;4.22;;;20.60;93.40;;;;;;5071811;28;20025;-72
2021/11/19 09:10:46;;;;;;;13.77;5.13;;;20.80;93.20;;;;;;5070422;28;20020;-73
2021/11/19 09:13:11;;;;;;;14.70;5.15;;;21.30;93.10;;;;;;5071361;28;20035;-72
2021/11/19 09:15:39;;;;;;;19.17;5.50;;;22.00;92.50;;;;;;5070604;28;20016;-72
2021/11/19 09:18:07;;;;;;;12.80;5.20;;;22.90;91.90;;;;;;5070925;28;20094;-71
2021/11/19 09:20:59;;;;;;;12.50;5.15;;;24.20;91.10;;;;;;5070955;28;20072;-72
2021/11/19 09:23:31;;;;;;;17.10;4.85;;;25.60;88.60;;;;;;5007682;28;20037;-73
2021/11/19 09:25:59;;;;;;;23.65;5.50;;;27.00;84.30;;;;;;5049666;28;20074;-72
2021/11/19 09:28:28;;;;;;;20.98;5.20;;;28.20;81.50;;;;;;5057417;28;20017;-73
2021/11/19 09:30:58;;;;;;;10.68;5.07;;;29.40;78.40;;;;;;5073770;28;20415;-73
2021/11/19 09:33:26;;;;;;;13.65;4.82;;;30.60;74.40;;;;;;5092256;28;20047;-73
2021/11/19 09:35:53;;;;;;;24.77;4.53;;;31.30;69.90;;;;;;5074050;28;20041;-72
2021/11/19 09:38:21;;;;;;;13.88;4.75;;;31.80;67.80;;;;;;5075164;28;20016;-71
2021/11/19 09:41:02;;;;;;;14.88;4.32;;;32.30;65.50;;;;;;5056647;28;20116;-73
2021/11/19 09:43:38;;;;;;;16.70;4.10;;;32.60;62.80;;;;;;5055444;28;20028;-73
2021/11/19 09:46:44;;;;;;;18.80;5.22;;;32.60;61.80;;;;;;5055344;28;20484;-72
2021/11/19 09:49:12;;;;;;;8.75;4.55;;;32.90;60.30;;;;;;5075008;28;20032;-73
2021/11/19 09:52:15;;;;;;;17.23;4.22;;;33.10;59.50;;;;;;5073146;28;20045;-74
2021/11/19 09:55:31;;;;;;;11.82;4.95;;;33.60;59.00;;;;;;5071289;28;20032;-73
2021/11/19 09:58:06;;;;;;;11.48;4.65;;;34.60;57.50;;;;;;5036764;28;20037;-73
2021/11/19 10:01:01;;;;;;;10.30;3.97;;;35.20;56.70;;;;;;5073188;28;20033;-72
2021/11/19 10:03:30;;;;;;;10.07;3.70;;;35.50;55.90;;;;;;5073565;28;20047;-73
2021/11/19 10:06:27;;;;;;;10.90;3.30;;;35.70;55.20;;;;;;5071349;28;20083;-72
2021/11/19 10:09:04;;;;;;;6.00;3.45;;;35.50;55.10;;;;;;5068608;28;20017;-73
2021/11/19 10:11:33;;;;;;;12.82;3.72;;;35.70;54.80;;;;;;5067637;28;20070;-73
2021/11/19 10:14:25;;;;;;;6.65;3.70;;;35.90;54.70;;;;;;5054317;28;20115;-73
2021/11/19 10:16:59;;;;;;;5.55;3.35;;;36.20;53.80;;;;;;5073550;28;20073;-74
2021/11/19 10:19:33;;;;;;;6.18;3.72;;;36.20;53.80;;;;;;5074897;28;20405;-72
2021/11/19 10:22:26;;;;;;;4.35;3.00;;;36.60;53.50;;;;;;5073755;28;20020;-72
2021/11/19 10:25:11;;;;;;;7.57;3.30;;;36.70;52.90;;;;;;5073907;28;20032;-73
2021/11/19 10:27:48;;;;;;;6.32;3.28;;;37.70;52.60;;;;;;5063713;28;20025;-73
2021/11/19 10:30:40;;;;;;;6.95;3.25;;;37.80;51.10;;;;;;5054785;28;20067;-73
2021/11/19 10:33:11;;;;;;;6.20;3.30;;;37.30;50.40;;;;;;5073825;28;20025;-73
2021/11/19 10:36:04;;;;;;;8.70;2.80;;;36.10;51.80;;;;;;5073870;28;20547;-74
2021/11/19 10:38:54;;;;;;;5.15;2.30;;;35.70;51.80;;;;;;5069854;28;20055;-75
2021/11/19 10:42:03;;;;;;;7.43;2.95;;;34.80;51.00;;;;;;5073609;28;20050;-72
2021/11/19 10:44:37;;;;;;;4.85;2.72;;;34.50;52.00;;;;;;5071714;28;20082;-73
2021/11/19 10:47:33;;;;;;;5.07;2.03;;;35.00;51.20;;;;;;5054993;28;20028;-73
2021/11/19 10:50:30;;;;;;;3.05;2.13;;;35.00;50.30;;;;;;5072545;28;20025;-73
2021/11/19 10:53:46;;;;;;;3.72;2.55;;;35.30;49.80;;;;;;5072725;28;20025;-76
2021/11/19 10:56:44;;;;;;;8.40;2.92;;;36.50;49.50;;;;;;5013380;28;20463;-76
2021/11/19 10:59:39;;;;;;;14.60;3.10;;;36.10;50.90;;;;;;5070371;28;20461;-73
2021/11/19 11:02:11;;;;;;;6.32;3.10;;;37.00;51.00;;;;;;5070632;28;20024;-77
2021/11/19 11:04:55;;;;;;;8.60;2.97;;;37.90;50.70;;;;;;5070530;28;20021;-76
2021/11/19 11:07:34;;;;;;;3.58;2.63;;;37.80;50.70;;;;;;5072354;28;20020;-74
2021/11/19 11:10:11;;;;;;;4.03;2.97;;;37.10;50.90;;;;;;5055091;28;20388;-76
2021/11/19 11:12:46;;;;;;;8.48;2.95;;;33.80;54.00;;;;;;5072555;28;20040;-76
2021/11/19 11:15:32;;;;;;;9.02;3.25;;;30.70;57.30;;;;;;5070929;28;20079;-76
2021/11/19 11:18:09;;;;;;;4.72;3.15;;;28.70;59.80;;;;;;5073119;28;20016;-75
2021/11/19 11:20:38;;;;;;;8.80;2.67;;;26.70;63.40;;;;;;5070862;28;20037;-73
2021/11/19 11:23:26;;;;;;;4.95;3.15;;;25.50;65.50;;;;;;5073289;28;20461;-75
2021/11/19 11:26:12;;;;;;;5.75;3.58;;;24.80;67.90;;;;;;5052776;28;20028;-75
2021/11/19 11:28:40;;;;;;;3.47;2.70;;;24.60;68.90;;;;;;5072699;28;20035;-75
2021/11/19 11:31:20;;;;;;;4.28;3.17;;;24.00;70.10;;;;;;5054947;28;20020;-75
2021/11/19 11:34:02;;;;;;;5.72;3.38;;;23.40;70.90;;;;;;5073087;28;20494;-75
2021/11/19 11:36:39;;;;;;;6.65;3.33;;;22.90;73.70;;;;;;5072668;28;20076;-75
2021/11/19 11:39:10;;;;;;;8.43;2.92;;;22.10;75.50;;;;;;5072249;28;20024;-74
2021/11/19 11:41:58;;;;;;;4.25;3.40;;;21.70;77.80;;;;;;5073495;28;20036;-75
2021/11/19 11:44:40;;;;;;;6.55;3.40;;;21.30;79.70;;;;;;5069602;28;20115;-75
2021/11/19 11:47:16;;;;;;;10.95;3.80;;;21.10;81.50;;;;;;5056446;28;20025;-74
2021/11/19 11:49:54;;;;;;;8.25;3.83;;;20.90;82.40;;;;;;5065302;28;20025;-74
2021/11/19 11:52:43;;;;;;;6.70;3.55;;;20.60;83.90;;;;;;5071329;28;20025;-74
2021/11/19 11:55:27;;;;;;;6.45;3.50;;;20.30;84.70;;;;;;5020556;28;20037;-75
2021/11/19 11:57:53;;;;;;;6.00;3.25;;;20.20;85.60;;;;;;5062030;28;20035;-74
2021/11/19 12:00:35;;;;;;;6.55;3.67;;;20.20;86.10;;;;;;5071829;28;20040;-73
2021/11/19 12:03:06;;;;;;;8.40;3.78;;;20.20;87.30;;;;;;5071724;28;20031;-74
2021/11/19 12:05:41;;;;;;;;;;;19.90;88.80;;;;;;5077760;28;20024;-73
2021/11/19 12:08:47;;;;;;;9.07;3.60;;;19.80;89.70;;;;;;5053821;28;19963;-74
2021/11/19 12:11:54;;;;;;;4.80;3.60;;;19.50;88.70;;;;;;5071443;28;20029;-76
2021/11/19 12:14:30;;;;;;;8.65;4.72;;;19.30;89.30;;;;;;5070152;28;20052;-73
2021/11/19 12:17:01;;;;;;;10.75;4.35;;;19.30;89.30;;;;;;5071253;28;20044;-73
2021/11/19 12:19:33;;;;;;;8.90;4.55;;;19.30;88.60;;;;;;5070676;28;20024;-73
2021/11/19 12:22:37;;;;;;;5.35;4.25;;;19.10;88.00;;;;;;5053019;28;20020;-73
2021/11/19 12:25:29;;;;;;;9.95;4.45;;;18.90;88.80;;;;;;5000875;28;20495;-72
2021/11/19 12:27:56;;;;;;;;;;;18.90;89.00;;;;;;5070486;28;20028;-72
2021/11/19 12:30:43;;;;;;;9.38;5.55;;;18.90;88.80;;;;;;5070255;28;19912;-72
2021/11/19 12:33:27;;;;;;;9.98;5.53;;;18.90;87.90;;;;;;5070541;28;20029;-74
2021/11/19 12:36:11;;;;;;;9.45;6.63;;;18.70;88.50;;;;;;5070190;28;20170;-72
2021/11/19 12:38:40;;;;;;;9.77;6.22;;;18.50;88.80;;;;;;5070330;28;20024;-73
2021/11/19 12:41:22;;;;;;;15.00;6.03;;;18.40;90.00;;;;;;5070434;28;20032;-74
2021/11/19 12:44:16;;;;;;;11.02;6.90;;;18.10;90.20;;;;;;5070385;28;20021;-72
2021/11/19 12:47:06;;;;;;;12.60;5.57;;;17.90;90.20;;;;;;5068800;28;20016;-71
2021/11/19 12:49:45;;;;;;;16.65;6.55;;;17.70;90.20;;;;;;5070710;28;20149;-72
2021/11/19 12:52:16;;;;;;;15.15;6.20;;;17.70;90.40;;;;;;5067780;28;20036;-73
2021/11/19 12:55:12;;;;;;;11.52;6.65;;;17.50;90.60;;;;;;5068252;28;20407;-71
2021/11/19 12:57:53;;;;;;;11.45;5.93;;;17.50;90.80;;;;;;5070074;28;20024;-72
2021/11/19 13:00:36;;;;;;;14.55;6.10;;;17.40;90.70;;;;;;5070068;28;20089;-73
2021/11/19 13:03:46;;;;;;;12.20;6.43;;;17.30;91.10;;;;;;5050404;28;20170;-74
2021/11/19 13:06:19;;;;;;;35.60;7.30;;;17.20;91.20;;;;;;5046250;28;20041;-75
2021/11/19 13:08:48;;;;;;;14.93;6.13;;;17.20;91.30;;;;;;5056260;28;20089;-73
2021/11/19 13:11:29;;;;;;;17.38;7.28;;;17.10;91.30;;;;;;5073874;28;20062;-74
2021/11/19 13:14:27;;;;;;;12.52;7.32;;;17.20;91.10;;;;;;5072722;28;20100;-74
2021/11/19 13:16:57;;;;;;;11.68;7.18;;;17.20;91.30;;;;;;5037496;28;20032;-74